TAF Text Data
IDs:
Format:
Raw Decoded Include METAR

Data at: 0750 UTC 01 Aug 2021

KFTY 010608Z 0106/0206 27004KT P6SM SCT035 SCT050
  TEMPO 0106/0108 4SM TSRA BKN035CB
  FM011200 28005KT P6SM BKN120
  FM011600 29007KT P6SM SCT035 SCT120
  FM011900 29010KT P6SM VCSH BKN040
  PROB30 0120/0201 4SM TSRA BKN035CB
  FM020200 30005KT P6SM SCT050 BKN250
  FM020500 33004KT P6SM SCT250